Αρχική σελίδα
METAR-TAF:

METAR-TAF

Αεροδρόμια :

Λουάντα, Αγκόλα

γεωγραφικό πλάτος: 08-51S, γεωγραφικό μήκος: 013-14E, υψόμετρο: 74 μ

Παρών καιρός

Η αναφορά έγινε 1 ώρα και 11 λεπτά πριν, στις 06:00 UTC
Άνεμος 2 kt από μεταβλητές κατευθύνσεις
Θερμοκρασία 26°C
Πίεση 1009 hPa
Ορατότητα: 9000 μ
Διάσπαρτα νέφη σε ύψος 1900 πόδια
Αρκετά νέφη σε ύψος 8000 πόδια

METAR: FNLU 250600Z VRB02KT 9000 SCT019 BKN080 26/// Q1009 NOSIG

Χρόνος: 08:11 (07:11 UTC)

Πρόγνωση Καιρού

Η αναφορά έγινε 2 ώρες και 11 λεπτά πριν, στις 05:00 UTC
Η πρόγνωση ισχύει από τις 25 στις 06 UTC έως τις 26 στις 12 UTC
Άνεμος 3 kt από μεταβλητές κατευθύνσεις
Ορατότητα: 9000 μ
Αρκετά νέφη σε ύψος 2200 πόδια
Πιθανότητα 30% :
Προσωρινά
από 25 στις 14 UTC έως τις 25 στις 18 UTC
Λίγα νέφη σε ύψος 2500 πόδια, Σωρειτομελανίτες.
καταιγίδα,

TAF: FNLU 250500Z 2506/2612 VRB03KT 9000 BKN022 PROB30 TEMPO 2514/2518 TS FEW025CB

Μετεωρολογικές αναφορές και προγνώσεις για περισσότερα από 4000 αεροδρόμια (δελτία METAR και TAF).

Οι διαθέσιμοι σταθμοί απεικονίζονται στο χάρτη με κίτρινες και κόκκινες κουκκίδες.

Μετακινήστε το ποντίκι πάνω από τις κουκκίδες για να δείτε το όνομα του σταθμού.

Στη συνέχεια, κάντε κλικ για να δείτε τις μετεωρολογικές αναφορές και τις προγνώσεις καιρού.

Για να αλλάξετε το χάρτη: κάντε κλικ στα πράσινα κουμπιά με τον μαύρο σταυρό για να ζουμάρετε, στο πράσινο κουμπί με την παύλα για να αφαιρέσετε το ζουμ ή στα πράσινα βέλη για να αντιπαραβάλλετε χάρτες.


METAR-TAF: